Flight Track Log - Related Links

Times and Time Zones

All times are in EDT time to prevent confusion due to time zone crossing. See the N945LC flight status page for this flight to view local times or setup timezone preferences in your user account.

Time Position Orientation Groundspeed Altitude Reporting Facility
EDT Latitude Longitude Course Direction KTS MPH feet Rate Location/Type
Mon 11:02:57 AM 32.2250 -86.2853 156° South 273 314 6,500  Level Atlanta Center
Mon 11:03:57 AM 32.1478 -86.2908 183° South 263 303 9,400 2,900 Climbing Atlanta Center
Mon 11:04:57 AM 32.0642 -86.3008 186° South 283 326 12,300 1,575 Climbing Atlanta Center
Mon 11:06:56 AM 31.8758 -86.3200 185° South 346 398 14,100 603 Climbing Jacksonville Center
Mon 11:07:00 AM 31.8768 -86.4115 182° South  Level Estimated
Mon 11:07:56 AM 31.7733 -86.3308 185° South 364 419 14,100  Level Jacksonville Center
Mon 11:08:56 AM 31.6750 -86.3419 185° South 370 426 14,100  Level Jacksonville Center
Mon 11:09:56 AM 31.5836 -86.3944 206° Southwest 360 414 14,100  Level Jacksonville Center
Mon 11:10:56 AM 31.5006 -86.4597 214° Southwest 360 414 14,100 -67 Level Jacksonville Center
Mon 11:12:56 AM 31.3017 -86.4789 185° South 360 414 13,900 -552 Descending Jacksonville Center
Mon 11:14:55 AM 31.0903 -86.4975 184° South 372 428 11,900 -1,106 Descending Jacksonville Center
Mon 11:15:55 AM 30.9878 -86.5031 183° South 363 418 10,600 -1,300 Descending Jacksonville Center
Mon 11:16:55 AM 30.9061 -86.5122 186° South 326 375 9,300 -1,650 Descending Jacksonville Center
Mon 11:17:55 AM 30.8306 -86.5286 191° South 293 337 7,300 -1,686 Descending Jacksonville Center
Mon 11:18:56 AM 30.7528 -86.5450 190° South 286 329 5,900 -1,100 Descending Jacksonville Center
Mon 11:19:55 AM 30.6772 -86.5589 189° South 279 321 5,100 -403 Descending Jacksonville Center
Mon 11:20:55 AM 30.6081 -86.5683 187° South 274 315 5,100 -446 Level Jacksonville Center
Mon 11:21:56 AM 30.5414 -86.5658 178° South 259 298 4,200 -1,150 Descending Jacksonville Center
Mon 11:22:55 AM 30.4944 -86.5256 144° Southeast 218 251 2,800 -1,424 Descending Jacksonville Center
Mon 11:25:00 AM 30.4000 -86.4667 180° South  Level FlightAware Approximate

Login

Don't have an account? Register now (free) for customized features, flight alerts, and more!